createdAt,value
2023-01-10T00:04:18.650Z,98820.55
2023-01-10T00:09:27.536Z,98822.60
2023-01-10T00:14:35.769Z,98826.20
2023-01-10T00:19:44.550Z,98839.71
2023-01-10T00:24:52.697Z,98848.43
2023-01-10T00:30:05.554Z,98859.54
2023-01-10T00:35:14.697Z,98863.84
2023-01-10T00:40:23.252Z,98869.36
2023-01-10T00:45:31.415Z,98875.27
2023-01-10T00:50:39.886Z,98879.17
2023-01-10T00:55:48.281Z,98878.42
2023-01-10T01:00:57.476Z,98883.29
2023-01-10T01:06:08.499Z,98889.11
2023-01-10T01:11:16.929Z,98896.91
2023-01-10T01:16:25.562Z,98899.63
2023-01-10T01:21:34.516Z,98903.95
2023-01-10T01:26:43.198Z,98908.96
2023-01-10T01:31:52.056Z,98920.30
2023-01-10T01:37:00.750Z,98922.79
2023-01-10T01:42:22.914Z,98933.77
2023-01-10T01:47:31.602Z,98941.40
2023-01-10T01:52:39.869Z,98944.40
2023-01-10T01:57:49.818Z,98956.03
2023-01-10T02:03:03.325Z,98963.98
2023-01-10T02:08:12.624Z,98969.86
2023-01-10T02:13:24.085Z,98978.03
2023-01-10T02:18:32.323Z,98980.95
2023-01-10T02:24:14.742Z,98980.45
2023-01-10T02:29:45.695Z,98992.73
2023-01-10T02:35:11.029Z,98994.80
2023-01-10T02:40:32.854Z,98995.84
2023-01-10T02:45:47.745Z,99001.77
2023-01-10T02:51:02.204Z,99006.98
2023-01-10T02:56:40.994Z,99017.67
2023-01-10T03:01:57.104Z,99027.98
2023-01-10T03:07:15.646Z,99041.61
2023-01-10T03:12:30.034Z,99048.62
2023-01-10T03:17:41.122Z,99056.52
2023-01-10T03:22:53.654Z,99065.46
2023-01-10T03:28:06.425Z,99078.41
2023-01-10T03:33:17.805Z,99081.90
2023-01-10T03:38:33.088Z,99088.20
2023-01-10T03:44:05.346Z,99086.16
2023-01-10T03:49:16.062Z,99084.45
2023-01-10T03:54:24.405Z,99087.79
2023-01-10T03:59:32.966Z,99095.70
2023-01-10T04:04:41.684Z,99104.24
2023-01-10T04:09:49.852Z,99109.52
2023-01-10T04:14:58.192Z,99110.75
2023-01-10T04:20:07.094Z,99118.79
2023-01-10T04:25:15.925Z,99124.03
2023-01-10T04:30:24.739Z,99139.56
2023-01-10T04:35:33.013Z,99150.59
2023-01-10T04:40:41.295Z,99158.48
2023-01-10T04:45:49.932Z,99167.17
2023-01-10T04:50:58.408Z,99173.07
2023-01-10T04:56:18.625Z,99183.15
2023-01-10T05:01:27.857Z,99192.87
2023-01-10T05:06:37.493Z,99194.73
2023-01-10T05:11:45.875Z,99198.19
2023-01-10T05:16:54.475Z,99207.41
2023-01-10T05:22:02.725Z,99214.21
2023-01-10T05:27:10.651Z,99232.59
2023-01-10T05:32:19.060Z,99240.16
2023-01-10T05:37:27.539Z,99252.70
2023-01-10T05:42:36.215Z,99261.43
2023-01-10T05:47:45.535Z,99273.83
2023-01-10T05:52:53.988Z,99286.23
2023-01-10T05:58:03.057Z,99297.93
2023-01-10T06:03:11.335Z,99309.30
2023-01-10T06:08:19.766Z,99319.12
2023-01-10T06:13:29.534Z,99324.38
2023-01-10T06:18:37.789Z,99333.05
2023-01-10T06:23:45.963Z,99347.69
2023-01-10T06:28:54.550Z,99360.42
2023-01-10T06:34:03.932Z,99379.95
2023-01-10T06:39:12.667Z,99387.61
2023-01-10T06:44:21.228Z,99398.38
2023-01-10T06:49:30.314Z,99408.30
2023-01-10T06:54:38.464Z,99412.30
2023-01-10T06:59:46.660Z,99421.36
2023-01-10T07:04:54.831Z,99430.27
2023-01-10T07:10:04.013Z,99438.30
2023-01-10T07:15:13.782Z,99445.83
2023-01-10T07:20:22.256Z,99455.41
2023-01-10T07:25:31.767Z,99463.44
2023-01-10T07:30:40.133Z,99467.46
2023-01-10T07:35:48.774Z,99479.84
2023-01-10T07:40:57.182Z,99490.82
2023-01-10T07:46:09.821Z,99497.29
2023-01-10T07:51:18.365Z,99499.92
2023-01-10T07:56:26.888Z,99503.05
2023-01-10T08:01:35.532Z,99511.36
2023-01-10T08:06:43.680Z,99524.81
2023-01-10T08:11:52.095Z,99529.35
2023-01-10T08:17:00.600Z,99540.98
2023-01-10T08:22:09.332Z,99540.90
2023-01-10T08:27:17.612Z,99542.92
2023-01-10T08:32:25.864Z,99542.30
2023-01-10T08:37:35.677Z,99546.77
2023-01-10T08:42:43.952Z,99554.42
2023-01-10T08:47:52.232Z,99561.59
2023-01-10T08:53:01.473Z,99566.09
2023-01-10T08:58:09.768Z,99584.91
2023-01-10T09:03:18.422Z,99591.52
2023-01-10T09:08:27.152Z,99596.77
2023-01-10T09:13:36.234Z,99598.85
2023-01-10T09:18:44.625Z,99607.23
2023-01-10T09:23:52.839Z,99610.85
2023-01-10T09:29:01.486Z,99622.33
2023-01-10T09:34:09.997Z,99622.96
2023-01-10T09:39:18.634Z,99627.13
2023-01-10T09:44:43.910Z,99636.91
2023-01-10T09:50:02.911Z,99637.77
2023-01-10T09:55:25.582Z,99621.13
2023-01-10T10:00:41.676Z,99632.95
2023-01-10T10:05:51.509Z,99634.48
2023-01-10T10:11:21.248Z,99635.36
2023-01-10T10:16:39.943Z,99633.59
2023-01-10T10:21:57.856Z,99632.88
2023-01-10T10:27:16.475Z,99649.50
2023-01-10T10:32:42.309Z,99656.88
2023-01-10T10:37:52.667Z,99658.78
2023-01-10T10:43:13.450Z,99660.02
2023-01-10T10:48:29.117Z,99664.85
2023-01-10T10:53:38.606Z,99674.26
2023-01-10T10:58:50.556Z,99673.73
2023-01-10T11:04:02.971Z,99675.45
2023-01-10T11:09:13.302Z,99671.33
2023-01-10T11:14:46.414Z,99671.25
2023-01-10T11:20:03.400Z,99670.58
2023-01-10T11:25:20.464Z,99672.71
2023-01-10T11:30:32.202Z,99671.13
2023-01-10T11:35:42.324Z,99674.29
2023-01-10T11:40:59.351Z,99683.88
2023-01-10T11:46:16.308Z,99688.54
2023-01-10T11:51:29.128Z,99697.05
2023-01-10T11:56:40.279Z,99705.76
2023-01-10T12:01:56.328Z,99710.70
2023-01-10T12:07:10.161Z,99722.11
2023-01-10T12:12:25.916Z,99727.02
2023-01-10T12:17:36.968Z,99727.52
2023-01-10T12:22:47.541Z,99737.98
2023-01-10T12:27:58.291Z,99747.44
2023-01-10T12:33:09.399Z,99757.55
2023-01-10T12:38:47.839Z,99768.02
2023-01-10T12:44:16.833Z,99777.48
2023-01-10T12:49:31.730Z,99783.42
2023-01-10T12:54:40.357Z,99791.11
2023-01-10T12:59:48.796Z,99798.29
2023-01-10T13:05:02.968Z,99806.58
2023-01-10T13:10:16.983Z,99818.66
2023-01-10T13:15:31.870Z,99817.48
2023-01-10T13:20:48.058Z,99819.09
2023-01-10T13:26:09.454Z,99833.64
2023-01-10T13:31:31.663Z,99843.79
2023-01-10T13:36:44.586Z,99854.95
2023-01-10T13:42:44.594Z,99864.90
2023-01-10T13:48:13.356Z,99864.51
2023-01-10T13:53:52.934Z,99866.96
2023-01-10T13:59:20.133Z,99872.58
2023-01-10T14:04:30.603Z,99880.15
2023-01-10T14:09:45.322Z,99878.95
2023-01-10T14:15:00.859Z,99879.66
2023-01-10T14:20:19.719Z,99878.46
2023-01-10T14:25:30.515Z,99883.03
2023-01-10T14:30:41.657Z,99887.56
2023-01-10T14:35:56.610Z,99891.06
2023-01-10T14:41:08.695Z,99894.27
2023-01-10T14:46:22.736Z,99891.19
2023-01-10T14:51:32.527Z,99894.73
2023-01-10T14:56:49.958Z,99893.62
2023-01-10T15:02:02.993Z,99898.91
2023-01-10T15:07:17.729Z,99907.02
2023-01-10T15:12:29.340Z,99909.58
2023-01-10T15:17:38.916Z,99910.92
2023-01-10T15:22:50.260Z,99922.04
2023-01-10T15:27:59.898Z,99932.54
2023-01-10T15:33:13.761Z,99934.10
2023-01-10T15:38:30.854Z,99934.23
2023-01-10T15:43:40.706Z,99931.70
2023-01-10T15:49:00.972Z,99937.36
2023-01-10T15:54:30.333Z,99939.02
2023-01-10T15:59:41.926Z,99945.92
2023-01-10T16:04:53.645Z,99970.48
2023-01-10T16:10:06.450Z,99980.06
2023-01-10T16:15:22.329Z,99984.36
2023-01-10T16:20:34.724Z,99983.59
2023-01-10T16:25:45.042Z,99982.66
2023-01-10T16:30:53.198Z,99985.72
2023-01-10T16:36:02.857Z,99991.44
2023-01-10T16:41:33.587Z,99996.80
2023-01-10T16:46:42.060Z,100000.23
2023-01-10T16:51:50.421Z,100002.77
2023-01-10T16:56:58.849Z,100004.62
2023-01-10T17:02:19.573Z,100002.29
2023-01-10T17:07:27.961Z,100006.40
2023-01-10T17:12:39.412Z,100010.51
2023-01-10T17:17:47.713Z,100003.08
2023-01-10T17:22:56.007Z,100010.84
2023-01-10T17:28:05.460Z,100021.23
2023-01-10T17:33:14.025Z,100027.09
2023-01-10T17:38:23.569Z,100044.27
2023-01-10T17:43:33.345Z,100042.95
2023-01-10T17:48:42.125Z,100037.98
2023-01-10T17:53:50.889Z,100044.46
2023-01-10T17:58:59.142Z,100055.67
2023-01-10T18:04:08.626Z,100059.38
2023-01-10T18:09:17.185Z,100058.39
2023-01-10T18:14:39.019Z,100052.48
2023-01-10T18:19:48.166Z,100055.80
2023-01-10T18:24:57.761Z,100061.24
2023-01-10T18:30:06.615Z,100068.58
2023-01-10T18:35:15.298Z,100078.69
2023-01-10T18:40:23.991Z,100084.29
2023-01-10T18:45:32.625Z,100078.06
2023-01-10T18:50:41.411Z,100076.51
2023-01-10T18:55:59.035Z,100083.65
2023-01-10T19:01:14.545Z,100086.97
2023-01-10T19:06:25.943Z,100093.41
2023-01-10T19:11:34.509Z,100087.33
2023-01-10T19:16:42.932Z,100086.63
2023-01-10T19:21:51.445Z,100090.68
2023-01-10T19:27:00.406Z,100094.88
2023-01-10T19:32:09.096Z,100102.59
2023-01-10T19:37:17.417Z,100115.02
2023-01-10T19:42:26.259Z,100119.05
2023-01-10T19:47:34.757Z,100124.83
2023-01-10T19:52:44.032Z,100121.88
2023-01-10T19:57:52.647Z,100126.76
2023-01-10T20:03:01.141Z,100131.98
2023-01-10T20:08:09.925Z,100128.31
2023-01-10T20:13:18.241Z,100125.66
2023-01-10T20:18:26.689Z,100126.88
2023-01-10T20:23:36.622Z,100122.33
2023-01-10T20:28:46.105Z,100123.02
2023-01-10T20:33:54.563Z,100122.33
2023-01-10T20:39:03.223Z,100118.48
2023-01-10T20:44:11.405Z,100118.84
2023-01-10T20:49:19.700Z,100126.86
2023-01-10T20:54:28.456Z,100127.58
2023-01-10T20:59:37.197Z,100123.09
2023-01-10T21:04:45.518Z,100120.16
2023-01-10T21:09:54.496Z,100112.55
2023-01-10T21:15:03.256Z,100112.08
2023-01-10T21:20:14.259Z,100117.36
2023-01-10T21:25:22.693Z,100112.71
2023-01-10T21:30:31.371Z,100126.35
2023-01-10T21:35:40.689Z,100133.35
2023-01-10T21:40:48.863Z,100134.95
2023-01-10T21:46:01.952Z,100133.08
2023-01-10T21:51:10.491Z,100134.13
2023-01-10T21:56:18.824Z,100135.34
2023-01-10T22:01:27.039Z,100131.34
2023-01-10T22:06:35.558Z,100134.16
2023-01-10T22:11:44.155Z,100139.77
2023-01-10T22:16:52.543Z,100142.10
2023-01-10T22:22:01.582Z,100145.48
2023-01-10T22:27:10.230Z,100148.33
2023-01-10T22:32:18.981Z,100142.82
2023-01-10T22:37:27.207Z,100146.39
2023-01-10T22:42:35.806Z,100157.07
2023-01-10T22:47:44.573Z,100163.23
2023-01-10T22:52:53.488Z,100163.11
2023-01-10T22:58:02.251Z,100166.29
2023-01-10T23:03:10.795Z,100173.13
2023-01-10T23:08:19.047Z,100176.81
2023-01-10T23:13:28.462Z,100177.19
2023-01-10T23:18:37.615Z,100177.89
2023-01-10T23:23:47.120Z,100182.75
2023-01-10T23:28:55.582Z,100184.67
2023-01-10T23:34:03.905Z,100184.69
2023-01-10T23:39:12.906Z,100185.90
2023-01-10T23:44:21.427Z,100185.73
2023-01-10T23:49:30.775Z,100184.34
2023-01-10T23:54:39.475Z,100189.55
2023-01-10T23:59:47.800Z,100195.98
